Terminal Aerodrome Forecast
Issued by NWS Charleston, WV

Home | Current Version | Previous Version | Text Only | Print | Product List | Glossary On
Versions: 1 2 3 4 5 6 7 8 9 10 11 12 13 14 15 16 17 18 19 20 21 22 23 24
000
FTUS41 KRLX 182336
TAFPKB
TAF
KPKB 182336Z 1900/1924 10003KT P6SM BKN250
     FM190800 16006KT P6SM BKN040
     FM191200 18008G14KT 6SM -RA OVC025
     FM191500 18009G16KT 5SM -RA OVC025
     FM191900 20008G14KT P6SM BKN150
     FM192200 20007KT P6SM BKN045=

USA.gov is the U.S. government's official web portal to all federal, state and local government web resources and services.